createdAt,value
2024-01-26T00:01:28.309Z,10.30
2024-01-26T00:03:55.115Z,10.33
2024-01-26T00:06:21.906Z,10.31
2024-01-26T00:08:48.424Z,10.33
2024-01-26T00:11:15.808Z,10.33
2024-01-26T00:13:42.414Z,10.31
2024-01-26T00:16:09.532Z,10.29
2024-01-26T00:18:37.085Z,10.32
2024-01-26T00:21:04.955Z,10.25
2024-01-26T00:23:31.726Z,10.33
2024-01-26T00:25:58.396Z,10.35
2024-01-26T00:28:25.034Z,10.32
2024-01-26T00:30:51.576Z,10.35
2024-01-26T00:33:18.848Z,10.28
2024-01-26T00:35:45.488Z,10.33
2024-01-26T00:38:12.016Z,10.30
2024-01-26T00:40:38.452Z,10.26
2024-01-26T00:43:05.072Z,10.31
2024-01-26T00:45:31.743Z,10.36
2024-01-26T00:47:58.347Z,10.35
2024-01-26T00:50:26.112Z,10.33
2024-01-26T00:52:53.186Z,10.25
2024-01-26T00:55:19.698Z,10.32
2024-01-26T00:57:46.300Z,10.35
2024-01-26T01:00:13.789Z,10.40
2024-01-26T01:02:40.305Z,10.35
2024-01-26T01:05:08.101Z,10.32
2024-01-26T01:07:34.693Z,10.35
2024-01-26T01:10:01.485Z,10.28
2024-01-26T01:12:27.995Z,10.33
2024-01-26T01:14:54.471Z,10.31
2024-01-26T01:17:20.961Z,10.31
2024-01-26T01:19:47.573Z,10.36
2024-01-26T01:22:14.085Z,10.29
2024-01-26T01:24:40.549Z,10.34
2024-01-26T01:27:07.156Z,10.30
2024-01-26T01:29:33.726Z,10.39
2024-01-26T01:32:00.248Z,10.39
2024-01-26T01:34:26.901Z,10.39
2024-01-26T01:36:53.426Z,10.41
2024-01-26T01:39:19.979Z,10.40
2024-01-26T01:41:50.149Z,10.42
2024-01-26T01:44:16.658Z,10.41
2024-01-26T01:46:43.212Z,10.43
2024-01-26T01:49:09.840Z,10.47
2024-01-26T01:51:36.691Z,10.35
2024-01-26T01:54:04.019Z,10.43
2024-01-26T01:56:30.655Z,10.43
2024-01-26T01:58:59.901Z,10.43
2024-01-26T02:01:26.763Z,10.48
2024-01-26T02:03:53.337Z,10.49
2024-01-26T02:06:20.204Z,10.46
2024-01-26T02:08:46.814Z,10.48
2024-01-26T02:11:13.379Z,10.49
2024-01-26T02:13:39.830Z,10.44
2024-01-26T02:16:06.403Z,10.46
2024-01-26T02:18:34.055Z,10.42
2024-01-26T02:21:00.632Z,10.41
2024-01-26T02:23:27.215Z,10.41
2024-01-26T02:25:53.799Z,10.42
2024-01-26T02:28:20.468Z,10.38
2024-01-26T02:30:47.153Z,10.42
2024-01-26T02:33:13.935Z,10.45
2024-01-26T02:35:40.551Z,10.42
2024-01-26T02:38:07.089Z,10.44
2024-01-26T02:40:33.785Z,10.51
2024-01-26T02:43:00.292Z,10.50
2024-01-26T02:45:27.367Z,10.48
2024-01-26T02:47:54.968Z,10.51
2024-01-26T02:50:21.623Z,10.50
2024-01-26T02:52:48.131Z,10.48
2024-01-26T02:55:14.604Z,10.53
2024-01-26T02:57:41.077Z,10.55
2024-01-26T03:00:09.001Z,10.61
2024-01-26T03:02:35.871Z,10.58
2024-01-26T03:05:02.426Z,10.57
2024-01-26T03:07:28.916Z,10.59
2024-01-26T03:09:55.406Z,10.59
2024-01-26T03:12:21.965Z,10.63
2024-01-26T03:14:48.670Z,10.68
2024-01-26T03:17:15.170Z,10.68
2024-01-26T03:19:41.687Z,10.65
2024-01-26T03:22:08.272Z,10.64
2024-01-26T03:24:34.886Z,10.65
2024-01-26T03:27:01.493Z,10.65
2024-01-26T03:29:28.078Z,10.63
2024-01-26T03:31:54.692Z,10.72
2024-01-26T03:34:21.303Z,10.73
2024-01-26T03:36:48.460Z,10.64
2024-01-26T03:39:15.125Z,10.70
2024-01-26T03:41:42.226Z,10.80
2024-01-26T03:44:09.055Z,10.75
2024-01-26T03:46:35.530Z,10.82
2024-01-26T03:49:04.881Z,10.86
2024-01-26T03:51:31.551Z,10.88
2024-01-26T03:54:00.644Z,10.91
2024-01-26T03:56:27.360Z,10.90
2024-01-26T03:58:54.873Z,10.94
2024-01-26T04:01:21.932Z,10.97
2024-01-26T04:03:49.256Z,10.97
2024-01-26T04:06:16.038Z,10.97
2024-01-26T04:08:42.640Z,10.95
2024-01-26T04:11:09.217Z,11.02
2024-01-26T04:13:35.705Z,11.03
2024-01-26T04:16:02.195Z,10.95
2024-01-26T04:18:28.821Z,11.00
2024-01-26T04:20:55.479Z,11.04
2024-01-26T04:23:22.022Z,11.00
2024-01-26T04:25:48.778Z,11.04
2024-01-26T04:28:15.440Z,11.05
2024-01-26T04:30:44.430Z,11.11
2024-01-26T04:33:11.392Z,11.06
2024-01-26T04:35:38.085Z,11.01
2024-01-26T04:38:06.883Z,11.06
2024-01-26T04:40:34.637Z,11.13
2024-01-26T04:43:01.379Z,11.11
2024-01-26T04:45:27.899Z,11.14
2024-01-26T04:47:54.454Z,11.16
2024-01-26T04:50:20.928Z,11.09
2024-01-26T04:52:47.425Z,11.17
2024-01-26T04:55:13.989Z,11.13
2024-01-26T04:57:40.485Z,11.06
2024-01-26T05:00:09.088Z,11.12
2024-01-26T05:02:35.728Z,11.07
2024-01-26T05:05:02.301Z,11.16
2024-01-26T05:07:28.860Z,11.06
2024-01-26T05:09:55.362Z,11.16
2024-01-26T05:12:22.028Z,11.14
2024-01-26T05:14:48.655Z,10.99
2024-01-26T05:17:15.104Z,11.13
2024-01-26T05:19:41.644Z,11.11
2024-01-26T05:22:08.191Z,11.10
2024-01-26T05:24:34.647Z,11.05
2024-01-26T05:27:01.234Z,11.09
2024-01-26T05:29:27.915Z,11.07
2024-01-26T05:31:54.466Z,10.99
2024-01-26T05:34:21.285Z,10.97
2024-01-26T05:36:47.932Z,10.97
2024-01-26T05:39:14.866Z,10.95
2024-01-26T05:41:41.695Z,10.96
2024-01-26T05:44:08.212Z,10.95
2024-01-26T05:46:34.727Z,10.98
2024-01-26T05:49:02.634Z,10.98
2024-01-26T05:51:29.626Z,10.98
2024-01-26T05:53:56.256Z,10.94
2024-01-26T05:56:25.773Z,10.96
2024-01-26T05:58:53.706Z,10.94
2024-01-26T06:01:20.272Z,11.00
2024-01-26T06:03:46.871Z,11.02
2024-01-26T06:06:13.463Z,11.04
2024-01-26T06:08:45.407Z,10.90
2024-01-26T06:11:12.293Z,11.00
2024-01-26T06:13:38.822Z,11.01
2024-01-26T06:16:06.092Z,11.03
2024-01-26T06:18:32.694Z,10.94
2024-01-26T06:20:59.366Z,11.04
2024-01-26T06:23:26.081Z,10.92
2024-01-26T06:25:53.024Z,10.96
2024-01-26T06:28:19.521Z,10.98
2024-01-26T06:30:46.124Z,10.97
2024-01-26T06:33:12.792Z,10.98
2024-01-26T06:35:39.491Z,10.97
2024-01-26T06:38:06.017Z,10.88
2024-01-26T06:40:32.600Z,10.93
2024-01-26T06:43:03.017Z,11.00
2024-01-26T06:45:29.501Z,11.02
2024-01-26T06:47:56.203Z,11.07
2024-01-26T06:50:22.779Z,11.07
2024-01-26T06:52:49.334Z,11.11
2024-01-26T06:55:15.926Z,11.09
2024-01-26T06:57:42.586Z,11.06
2024-01-26T07:00:10.432Z,11.09
2024-01-26T07:02:38.174Z,11.00
2024-01-26T07:05:05.232Z,11.09
2024-01-26T07:07:31.661Z,11.14
2024-01-26T07:09:58.185Z,11.08
2024-01-26T07:12:24.692Z,11.11
2024-01-26T07:14:51.205Z,11.06
2024-01-26T07:17:18.284Z,11.12
2024-01-26T07:19:44.825Z,11.16
2024-01-26T07:22:11.262Z,11.12
2024-01-26T07:24:37.819Z,11.18
2024-01-26T07:27:04.383Z,11.12
2024-01-26T07:29:30.896Z,11.23
2024-01-26T07:31:57.454Z,11.16
2024-01-26T07:34:24.037Z,11.28
2024-01-26T07:36:50.612Z,11.20
2024-01-26T07:39:17.248Z,11.26
2024-01-26T07:41:43.803Z,11.16
2024-01-26T07:44:10.356Z,11.15
2024-01-26T07:46:39.794Z,11.20
2024-01-26T07:49:06.704Z,11.21
2024-01-26T07:51:33.397Z,11.04
2024-01-26T07:53:59.997Z,11.09
2024-01-26T07:56:26.482Z,11.16
2024-01-26T07:58:53.111Z,11.16
2024-01-26T08:01:19.981Z,11.22
2024-01-26T08:03:47.229Z,11.17
2024-01-26T08:06:16.643Z,11.24
2024-01-26T08:08:43.198Z,11.22
2024-01-26T08:11:11.756Z,11.25
2024-01-26T08:13:38.468Z,11.23
2024-01-26T08:16:05.426Z,11.24
2024-01-26T08:18:32.185Z,11.33
2024-01-26T08:20:58.983Z,11.19
2024-01-26T08:23:25.896Z,11.29
2024-01-26T08:25:52.627Z,11.36
2024-01-26T08:28:19.332Z,11.29
2024-01-26T08:30:46.059Z,11.23
2024-01-26T08:33:12.675Z,11.25
2024-01-26T08:35:39.445Z,11.16
2024-01-26T08:38:06.069Z,11.11
2024-01-26T08:40:32.570Z,11.23
2024-01-26T08:42:59.099Z,11.18
2024-01-26T08:45:25.831Z,11.07
2024-01-26T08:47:52.973Z,11.02
2024-01-26T08:50:19.664Z,11.06
2024-01-26T08:52:46.281Z,10.91
2024-01-26T08:55:12.903Z,10.86
2024-01-26T08:57:39.554Z,10.81
2024-01-26T09:00:10.441Z,10.71
2024-01-26T09:02:37.308Z,10.57
2024-01-26T09:05:03.982Z,10.38
2024-01-26T09:07:30.497Z,10.27
2024-01-26T09:09:56.950Z,10.14
2024-01-26T09:12:23.482Z,10.00
2024-01-26T09:14:50.058Z,9.82
2024-01-26T09:17:17.425Z,9.62
2024-01-26T09:19:44.082Z,9.13
2024-01-26T09:22:10.624Z,8.87
2024-01-26T09:24:37.170Z,8.91
2024-01-26T09:27:03.869Z,8.63
2024-01-26T09:29:30.350Z,8.57
2024-01-26T09:31:58.199Z,8.53
2024-01-26T09:34:25.150Z,8.50
2024-01-26T09:36:53.542Z,8.59
2024-01-26T09:39:22.963Z,8.47
2024-01-26T09:41:49.732Z,8.58
2024-01-26T09:44:16.230Z,8.59
2024-01-26T09:46:44.360Z,8.52
2024-01-26T09:49:11.125Z,8.63
2024-01-26T09:51:38.212Z,8.69
2024-01-26T09:54:06.179Z,8.65
2024-01-26T09:56:34.623Z,8.75
2024-01-26T09:59:02.435Z,8.72
2024-01-26T10:01:29.220Z,8.71
2024-01-26T10:03:57.430Z,8.55
2024-01-26T10:06:24.329Z,8.54
2024-01-26T10:08:50.910Z,8.77
2024-01-26T10:11:17.460Z,8.98
2024-01-26T10:13:44.002Z,9.17
2024-01-26T10:16:14.065Z,9.21
2024-01-26T10:18:41.970Z,9.44
2024-01-26T10:21:09.244Z,9.55
2024-01-26T10:23:36.426Z,9.51
2024-01-26T10:26:04.025Z,9.65
2024-01-26T10:28:30.685Z,9.64
2024-01-26T10:30:57.237Z,9.75
2024-01-26T10:33:27.141Z,9.73
2024-01-26T10:35:58.162Z,9.88
2024-01-26T10:38:26.454Z,10.21
2024-01-26T10:40:59.672Z,10.34
2024-01-26T10:43:26.558Z,10.28
2024-01-26T10:45:53.742Z,10.17
2024-01-26T10:48:20.776Z,10.16
2024-01-26T10:50:48.374Z,10.48
2024-01-26T10:53:15.995Z,10.71
2024-01-26T10:55:43.902Z,10.28
2024-01-26T10:58:11.075Z,10.57
2024-01-26T11:00:37.786Z,10.62
2024-01-26T11:03:04.908Z,10.14
2024-01-26T11:05:32.062Z,10.68
2024-01-26T11:07:59.562Z,10.70
2024-01-26T11:10:27.321Z,10.79
2024-01-26T11:13:02.146Z,10.34
2024-01-26T11:15:29.674Z,10.30
2024-01-26T11:18:00.262Z,10.79
2024-01-26T11:20:31.666Z,10.22
2024-01-26T11:23:15.967Z,10.18
2024-01-26T11:25:44.576Z,10.07
2024-01-26T11:28:12.187Z,10.16
2024-01-26T11:30:38.907Z,9.89
2024-01-26T11:33:19.202Z,9.94
2024-01-26T11:35:46.962Z,9.74
2024-01-26T11:38:14.282Z,9.65
2024-01-26T11:40:41.169Z,9.64
2024-01-26T11:43:08.321Z,9.62
2024-01-26T11:45:46.386Z,9.61
2024-01-26T11:48:14.881Z,9.55
2024-01-26T11:50:45.998Z,9.39
2024-01-26T11:53:17.738Z,9.42
2024-01-26T11:55:45.379Z,9.41
2024-01-26T11:58:12.555Z,9.44
2024-01-26T12:00:40.215Z,9.31
2024-01-26T12:03:09.520Z,9.28
2024-01-26T12:05:37.446Z,9.46
2024-01-26T12:08:06.160Z,9.41
2024-01-26T12:10:36.301Z,9.19
2024-01-26T12:13:04.576Z,9.15
2024-01-26T12:15:33.424Z,9.41
2024-01-26T12:20:27.431Z,9.09
2024-01-26T12:22:57.194Z,9.23
2024-01-26T12:25:28.642Z,9.32
2024-01-26T12:27:55.787Z,9.29
2024-01-26T12:30:22.577Z,9.11
2024-01-26T12:32:49.377Z,9.23
2024-01-26T12:35:16.054Z,9.04
2024-01-26T12:37:45.158Z,9.13
2024-01-26T12:40:12.262Z,9.09
2024-01-26T12:42:39.451Z,8.80
2024-01-26T12:45:06.215Z,8.88
2024-01-26T12:47:33.011Z,8.99
2024-01-26T12:49:59.742Z,8.91
2024-01-26T12:52:26.324Z,8.83
2024-01-26T12:54:56.253Z,8.84
2024-01-26T12:57:23.380Z,8.69
2024-01-26T12:59:49.951Z,8.81
2024-01-26T13:02:16.801Z,8.81
2024-01-26T13:04:44.167Z,8.81
2024-01-26T13:07:11.323Z,8.76
2024-01-26T13:09:37.917Z,8.62
2024-01-26T13:12:05.102Z,8.69
2024-01-26T13:14:31.675Z,8.50
2024-01-26T13:16:58.215Z,8.22
2024-01-26T13:19:24.884Z,8.58
2024-01-26T13:21:51.634Z,8.39
2024-01-26T13:24:18.753Z,8.62
2024-01-26T13:26:46.052Z,8.57
2024-01-26T13:29:12.926Z,8.76
2024-01-26T13:31:39.680Z,8.60
2024-01-26T13:34:06.321Z,8.64
2024-01-26T13:36:32.933Z,8.78
2024-01-26T13:38:59.489Z,8.86
2024-01-26T13:41:26.231Z,8.90
2024-01-26T13:43:52.964Z,8.74
2024-01-26T13:46:19.785Z,8.80
2024-01-26T13:48:46.420Z,8.76
2024-01-26T13:51:13.114Z,8.77
2024-01-26T13:53:39.769Z,8.55
2024-01-26T13:56:06.621Z,8.82
2024-01-26T13:58:33.151Z,8.82
2024-01-26T14:01:00.171Z,8.81
2024-01-26T14:03:26.898Z,8.75
2024-01-26T14:05:53.795Z,8.71
2024-01-26T14:08:20.424Z,8.84
2024-01-26T14:10:46.953Z,8.46
2024-01-26T14:13:13.377Z,8.27
2024-01-26T14:15:39.880Z,8.55
2024-01-26T14:18:06.527Z,8.75
2024-01-26T14:20:35.034Z,8.75
2024-01-26T14:23:01.497Z,8.79
2024-01-26T14:25:28.013Z,8.90
2024-01-26T14:27:55.140Z,8.84
2024-01-26T14:30:23.508Z,8.91
2024-01-26T14:32:50.704Z,8.97
2024-01-26T14:35:17.305Z,8.90
2024-01-26T14:37:44.656Z,8.73
2024-01-26T14:40:14.248Z,8.55
2024-01-26T14:42:41.051Z,8.77
2024-01-26T14:45:08.464Z,8.80
2024-01-26T14:47:39.332Z,8.65
2024-01-26T14:50:10.553Z,9.02
2024-01-26T14:52:41.086Z,9.05
2024-01-26T14:55:14.789Z,9.03
2024-01-26T14:57:42.191Z,9.17
2024-01-26T15:00:09.464Z,8.83
2024-01-26T15:02:39.133Z,8.89
2024-01-26T15:05:06.451Z,8.91
2024-01-26T15:07:37.217Z,8.81
2024-01-26T15:10:06.109Z,8.70
2024-01-26T15:12:32.576Z,8.73
2024-01-26T15:14:59.237Z,8.90
2024-01-26T15:17:25.719Z,8.92
2024-01-26T15:19:53.800Z,9.10
2024-01-26T15:22:20.444Z,9.06
2024-01-26T15:24:47.023Z,8.64
2024-01-26T15:27:13.521Z,8.65
2024-01-26T15:29:39.998Z,8.56
2024-01-26T15:32:06.933Z,8.63
2024-01-26T15:34:36.397Z,8.69
2024-01-26T15:37:03.477Z,8.71
2024-01-26T15:39:29.964Z,8.70
2024-01-26T15:41:56.535Z,8.69
2024-01-26T15:44:23.414Z,8.41
2024-01-26T15:46:49.891Z,8.40
2024-01-26T15:49:16.674Z,8.13
2024-01-26T15:51:43.203Z,8.07
2024-01-26T15:54:10.204Z,8.12
2024-01-26T15:56:39.336Z,8.02
2024-01-26T15:59:05.954Z,7.98
2024-01-26T16:01:32.759Z,7.99
2024-01-26T16:03:59.430Z,7.86
2024-01-26T16:06:26.250Z,7.71
2024-01-26T16:08:52.811Z,7.82
2024-01-26T16:11:20.189Z,7.75
2024-01-26T16:13:47.247Z,7.65
2024-01-26T16:16:14.213Z,7.68
2024-01-26T16:18:40.798Z,7.65
2024-01-26T16:21:07.443Z,7.58
2024-01-26T16:23:33.959Z,7.52
2024-01-26T16:26:00.452Z,7.41
2024-01-26T16:28:26.958Z,7.40
2024-01-26T16:30:53.460Z,7.42
2024-01-26T16:33:20.178Z,7.29
2024-01-26T16:35:47.006Z,7.22
2024-01-26T16:38:14.202Z,7.21
2024-01-26T16:40:40.839Z,7.18
2024-01-26T16:43:07.460Z,7.15
2024-01-26T16:45:34.025Z,7.12
2024-01-26T16:48:00.924Z,7.07
2024-01-26T16:50:27.511Z,7.11
2024-01-26T16:52:53.990Z,7.06
2024-01-26T16:55:20.628Z,7.02
2024-01-26T16:57:47.258Z,7.00
2024-01-26T17:00:14.846Z,7.00
2024-01-26T17:02:41.446Z,6.89
2024-01-26T17:05:08.129Z,6.92
2024-01-26T17:07:35.733Z,6.90
2024-01-26T17:10:02.478Z,6.95
2024-01-26T17:12:29.029Z,6.85
2024-01-26T17:14:55.649Z,6.86
2024-01-26T17:17:23.155Z,6.81
2024-01-26T17:19:52.734Z,6.80
2024-01-26T17:22:19.804Z,6.77
2024-01-26T17:24:46.443Z,6.76
2024-01-26T17:27:13.083Z,6.73
2024-01-26T17:29:39.628Z,6.68
2024-01-26T17:32:06.397Z,6.68
2024-01-26T17:34:33.957Z,6.65
2024-01-26T17:37:00.677Z,6.65
2024-01-26T17:39:27.355Z,6.59
2024-01-26T17:41:56.188Z,6.58
2024-01-26T17:44:25.312Z,6.47
2024-01-26T17:46:51.841Z,6.55
2024-01-26T17:49:18.484Z,6.44
2024-01-26T17:51:45.215Z,6.45
2024-01-26T17:54:11.678Z,6.45
2024-01-26T17:56:38.166Z,6.47
2024-01-26T17:59:04.600Z,6.49
2024-01-26T18:01:31.217Z,6.43
2024-01-26T18:03:59.573Z,6.48
2024-01-26T18:06:27.039Z,6.39
2024-01-26T18:08:53.684Z,6.38
2024-01-26T18:11:20.207Z,6.39
2024-01-26T18:13:46.717Z,6.36
2024-01-26T18:16:13.222Z,6.38
2024-01-26T18:18:40.186Z,6.21
2024-01-26T18:21:06.772Z,6.36
2024-01-26T18:23:33.386Z,6.21
2024-01-26T18:25:59.986Z,6.30
2024-01-26T18:28:26.509Z,6.30
2024-01-26T18:30:53.016Z,6.15
2024-01-26T18:33:19.898Z,6.28
2024-01-26T18:35:46.764Z,6.22
2024-01-26T18:38:13.297Z,6.21
2024-01-26T18:40:39.820Z,6.22
2024-01-26T18:43:06.265Z,6.13
2024-01-26T18:45:32.815Z,6.20
2024-01-26T18:47:59.474Z,6.14
2024-01-26T18:50:26.132Z,6.17
2024-01-26T18:52:52.785Z,6.12
2024-01-26T18:55:19.581Z,6.11
2024-01-26T18:57:46.110Z,6.12
2024-01-26T19:00:13.515Z,6.11
2024-01-26T19:02:40.653Z,6.10
2024-01-26T19:05:10.782Z,6.07
2024-01-26T19:07:37.748Z,6.07
2024-01-26T19:10:04.992Z,6.08
2024-01-26T19:12:31.776Z,6.04
2024-01-26T19:14:58.553Z,6.06
2024-01-26T19:17:25.366Z,6.08
2024-01-26T19:19:51.940Z,6.07
2024-01-26T19:22:18.520Z,6.06
2024-01-26T19:24:46.006Z,6.06
2024-01-26T19:27:12.942Z,6.04
2024-01-26T19:29:41.255Z,6.02
2024-01-26T19:32:07.867Z,5.97
2024-01-26T19:34:35.170Z,5.91
2024-01-26T19:37:05.690Z,5.93
2024-01-26T19:39:32.215Z,5.90
2024-01-26T19:41:59.172Z,5.77
2024-01-26T19:44:25.786Z,5.83
2024-01-26T19:46:52.318Z,5.73
2024-01-26T19:49:19.070Z,5.69
2024-01-26T19:51:50.309Z,5.66
2024-01-26T19:54:16.888Z,5.64
2024-01-26T19:56:43.514Z,5.52
2024-01-26T19:59:10.051Z,5.51
2024-01-26T20:01:36.557Z,5.45
2024-01-26T20:04:03.238Z,5.42
2024-01-26T20:06:29.833Z,5.37
2024-01-26T20:08:58.131Z,5.33
2024-01-26T20:11:24.678Z,5.33
2024-01-26T20:13:51.166Z,5.26
2024-01-26T20:16:17.947Z,5.22
2024-01-26T20:18:44.651Z,5.18
2024-01-26T20:21:14.483Z,5.15
2024-01-26T20:23:43.643Z,5.17
2024-01-26T20:26:10.873Z,5.12
2024-01-26T20:28:39.124Z,5.13
2024-01-26T20:31:08.749Z,5.05
2024-01-26T20:33:37.481Z,5.04
2024-01-26T20:36:04.424Z,4.99
2024-01-26T20:38:31.876Z,4.94
2024-01-26T20:40:58.442Z,4.96
2024-01-26T20:43:26.877Z,4.89
2024-01-26T20:45:53.667Z,4.87
2024-01-26T20:48:20.585Z,4.86
2024-01-26T20:50:47.525Z,4.77
2024-01-26T20:53:14.114Z,4.77
2024-01-26T20:55:40.602Z,4.75
2024-01-26T20:58:08.043Z,4.73
2024-01-26T21:00:34.730Z,4.74
2024-01-26T21:03:01.407Z,4.77
2024-01-26T21:05:32.676Z,4.72
2024-01-26T21:08:00.107Z,4.67
2024-01-26T21:10:27.033Z,4.72
2024-01-26T21:12:57.494Z,4.71
2024-01-26T21:15:25.365Z,4.67
2024-01-26T21:17:52.088Z,4.64
2024-01-26T21:20:18.988Z,4.52
2024-01-26T21:22:49.750Z,4.64
2024-01-26T21:25:16.582Z,4.60
2024-01-26T21:27:43.065Z,4.57
2024-01-26T21:30:10.193Z,4.46
2024-01-26T21:32:36.967Z,4.52
2024-01-26T21:35:05.179Z,4.51
2024-01-26T21:37:32.080Z,4.46
2024-01-26T21:39:58.627Z,4.44
2024-01-26T21:42:26.412Z,4.41
2024-01-26T21:44:53.311Z,4.39
2024-01-26T21:47:19.956Z,4.40
2024-01-26T21:49:46.761Z,4.40
2024-01-26T21:52:15.311Z,4.37
2024-01-26T21:54:41.976Z,4.35
2024-01-26T21:57:08.713Z,4.35
2024-01-26T21:59:35.247Z,4.18
2024-01-26T22:02:01.774Z,4.41
2024-01-26T22:04:29.412Z,4.34
2024-01-26T22:06:56.578Z,4.37
2024-01-26T22:09:23.342Z,4.41
2024-01-26T22:11:49.961Z,4.37
2024-01-26T22:14:17.992Z,4.41
2024-01-26T22:16:44.501Z,4.42
2024-01-26T22:19:11.201Z,4.45
2024-01-26T22:21:37.830Z,4.42
2024-01-26T22:24:04.782Z,4.42
2024-01-26T22:26:31.320Z,4.41
2024-01-26T22:28:59.810Z,4.39
2024-01-26T22:31:26.420Z,4.41
2024-01-26T22:33:53.267Z,4.39
2024-01-26T22:36:20.325Z,4.40
2024-01-26T22:38:53.605Z,4.37
2024-01-26T22:41:20.290Z,4.40
2024-01-26T22:43:46.832Z,4.40
2024-01-26T22:46:13.764Z,4.41
2024-01-26T22:48:40.509Z,4.42
2024-01-26T22:51:07.341Z,4.41
2024-01-26T22:53:33.848Z,4.40
2024-01-26T22:56:01.106Z,4.39
2024-01-26T22:58:27.614Z,4.37
2024-01-26T23:00:54.163Z,4.37
2024-01-26T23:03:20.895Z,4.32
2024-01-26T23:05:49.218Z,4.29
2024-01-26T23:08:16.018Z,4.23
2024-01-26T23:10:42.539Z,4.24
2024-01-26T23:13:09.102Z,4.21
2024-01-26T23:15:35.635Z,4.23
2024-01-26T23:18:02.540Z,4.25
2024-01-26T23:20:29.136Z,4.23
2024-01-26T23:22:55.637Z,4.28
2024-01-26T23:25:22.144Z,4.22
2024-01-26T23:27:48.840Z,4.26
2024-01-26T23:30:15.486Z,4.29
2024-01-26T23:32:45.335Z,4.25
2024-01-26T23:35:12.888Z,4.21
2024-01-26T23:37:39.485Z,4.27
2024-01-26T23:40:07.315Z,4.28
2024-01-26T23:42:34.007Z,4.27
2024-01-26T23:45:00.858Z,4.30
2024-01-26T23:47:27.561Z,4.34
2024-01-26T23:49:54.305Z,4.37
2024-01-26T23:52:21.501Z,4.36
2024-01-26T23:54:48.023Z,4.35
2024-01-26T23:57:15.417Z,4.34
2024-01-26T23:59:42.077Z,4.34
